sensor_id;sensor_type;location;lat;lon;timestamp;P1;durP1;ratioP1;P2;durP2;ratioP2
65996;SDS011;52765;52.258;21.052;2024-01-30T00:02:51;37.53;;;15.07;;
65996;SDS011;52765;52.258;21.052;2024-01-30T00:07:16;38.85;;;15.52;;
65996;SDS011;52765;52.258;21.052;2024-01-30T00:11:42;37.80;;;14.60;;
65996;SDS011;52765;52.258;21.052;2024-01-30T00:16:07;38.13;;;15.55;;
65996;SDS011;52765;52.258;21.052;2024-01-30T00:20:34;35.65;;;15.60;;
65996;SDS011;52765;52.258;21.052;2024-01-30T00:24:59;36.22;;;14.95;;
65996;SDS011;52765;52.258;21.052;2024-01-30T00:29:25;37.70;;;14.88;;
65996;SDS011;52765;52.258;21.052;2024-01-30T00:33:55;37.15;;;15.68;;
65996;SDS011;52765;52.258;21.052;2024-01-30T00:38:20;40.17;;;16.05;;
65996;SDS011;52765;52.258;21.052;2024-01-30T00:42:46;33.45;;;15.98;;
65996;SDS011;52765;52.258;21.052;2024-01-30T00:47:12;40.35;;;15.23;;
65996;SDS011;52765;52.258;21.052;2024-01-30T00:51:37;37.63;;;16.30;;
65996;SDS011;52765;52.258;21.052;2024-01-30T00:56:02;37.15;;;15.10;;
65996;SDS011;52765;52.258;21.052;2024-01-30T01:00:28;38.53;;;15.77;;
65996;SDS011;52765;52.258;21.052;2024-01-30T01:04:54;37.25;;;14.70;;
65996;SDS011;52765;52.258;21.052;2024-01-30T01:09:19;35.63;;;15.27;;
65996;SDS011;52765;52.258;21.052;2024-01-30T01:13:45;37.05;;;15.10;;
65996;SDS011;52765;52.258;21.052;2024-01-30T01:18:10;36.65;;;15.02;;
65996;SDS011;52765;52.258;21.052;2024-01-30T01:22:36;36.95;;;15.70;;
65996;SDS011;52765;52.258;21.052;2024-01-30T01:27:03;42.83;;;16.67;;
65996;SDS011;52765;52.258;21.052;2024-01-30T01:31:30;36.22;;;15.75;;
65996;SDS011;52765;52.258;21.052;2024-01-30T01:35:56;38.72;;;15.63;;
65996;SDS011;52765;52.258;21.052;2024-01-30T01:40:25;38.97;;;15.85;;
65996;SDS011;52765;52.258;21.052;2024-01-30T01:44:51;39.22;;;14.55;;
65996;SDS011;52765;52.258;21.052;2024-01-30T01:49:17;37.25;;;15.02;;
65996;SDS011;52765;52.258;21.052;2024-01-30T01:53:44;39.08;;;15.18;;
65996;SDS011;52765;52.258;21.052;2024-01-30T01:58:10;38.53;;;14.98;;
65996;SDS011;52765;52.258;21.052;2024-01-30T02:02:37;36.75;;;16.20;;
65996;SDS011;52765;52.258;21.052;2024-01-30T02:07:04;36.40;;;15.10;;
65996;SDS011;52765;52.258;21.052;2024-01-30T02:11:29;41.42;;;15.98;;
65996;SDS011;52765;52.258;21.052;2024-01-30T02:15:55;37.10;;;14.73;;
65996;SDS011;52765;52.258;21.052;2024-01-30T02:20:21;41.03;;;14.70;;
65996;SDS011;52765;52.258;21.052;2024-01-30T02:24:48;37.78;;;15.05;;
65996;SDS011;52765;52.258;21.052;2024-01-30T02:29:14;34.17;;;14.52;;
65996;SDS011;52765;52.258;21.052;2024-01-30T02:33:39;40.85;;;15.65;;
65996;SDS011;52765;52.258;21.052;2024-01-30T02:38:05;36.50;;;14.98;;
65996;SDS011;52765;52.258;21.052;2024-01-30T02:42:30;33.47;;;14.25;;
65996;SDS011;52765;52.258;21.052;2024-01-30T02:46:56;36.70;;;15.10;;
65996;SDS011;52765;52.258;21.052;2024-01-30T02:51:21;30.98;;;14.77;;
65996;SDS011;52765;52.258;21.052;2024-01-30T02:55:47;39.05;;;14.15;;
65996;SDS011;52765;52.258;21.052;2024-01-30T03:00:12;36.40;;;14.45;;
65996;SDS011;52765;52.258;21.052;2024-01-30T03:04:40;29.63;;;14.70;;
65996;SDS011;52765;52.258;21.052;2024-01-30T03:09:06;38.67;;;15.40;;
65996;SDS011;52765;52.258;21.052;2024-01-30T03:13:31;36.15;;;14.27;;
65996;SDS011;52765;52.258;21.052;2024-01-30T03:17:57;36.13;;;14.73;;
65996;SDS011;52765;52.258;21.052;2024-01-30T03:22:22;36.20;;;15.05;;
65996;SDS011;52765;52.258;21.052;2024-01-30T03:26:48;32.40;;;14.00;;
65996;SDS011;52765;52.258;21.052;2024-01-30T03:31:14;35.22;;;15.07;;
65996;SDS011;52765;52.258;21.052;2024-01-30T03:35:41;31.70;;;12.98;;
65996;SDS011;52765;52.258;21.052;2024-01-30T03:40:06;32.95;;;13.85;;
65996;SDS011;52765;52.258;21.052;2024-01-30T03:44:32;33.05;;;14.20;;
65996;SDS011;52765;52.258;21.052;2024-01-30T03:48:58;37.55;;;14.40;;
65996;SDS011;52765;52.258;21.052;2024-01-30T03:53:23;36.42;;;14.88;;
65996;SDS011;52765;52.258;21.052;2024-01-30T03:57:49;33.17;;;13.80;;
65996;SDS011;52765;52.258;21.052;2024-01-30T04:02:14;35.30;;;14.23;;
65996;SDS011;52765;52.258;21.052;2024-01-30T04:06:40;33.10;;;14.88;;
65996;SDS011;52765;52.258;21.052;2024-01-30T04:11:05;39.55;;;13.90;;
65996;SDS011;52765;52.258;21.052;2024-01-30T04:15:31;36.63;;;14.07;;
65996;SDS011;52765;52.258;21.052;2024-01-30T04:19:57;34.40;;;14.10;;
65996;SDS011;52765;52.258;21.052;2024-01-30T04:24:23;34.97;;;15.00;;
65996;SDS011;52765;52.258;21.052;2024-01-30T04:28:48;40.33;;;14.35;;
65996;SDS011;52765;52.258;21.052;2024-01-30T04:33:14;33.15;;;13.27;;
65996;SDS011;52765;52.258;21.052;2024-01-30T04:37:40;41.92;;;14.65;;
65996;SDS011;52765;52.258;21.052;2024-01-30T04:42:05;35.65;;;15.30;;
65996;SDS011;52765;52.258;21.052;2024-01-30T04:46:31;32.00;;;14.45;;
65996;SDS011;52765;52.258;21.052;2024-01-30T04:50:57;34.30;;;14.85;;
65996;SDS011;52765;52.258;21.052;2024-01-30T04:55:23;33.75;;;14.50;;
65996;SDS011;52765;52.258;21.052;2024-01-30T04:59:49;39.67;;;16.10;;
65996;SDS011;52765;52.258;21.052;2024-01-30T05:04:14;36.75;;;15.23;;
65996;SDS011;52765;52.258;21.052;2024-01-30T05:08:40;37.00;;;15.63;;
65996;SDS011;52765;52.258;21.052;2024-01-30T05:13:05;40.17;;;16.48;;
65996;SDS011;52765;52.258;21.052;2024-01-30T05:17:31;38.03;;;14.82;;
65996;SDS011;52765;52.258;21.052;2024-01-30T05:21:57;40.97;;;15.43;;
65996;SDS011;52765;52.258;21.052;2024-01-30T05:26:22;37.80;;;15.10;;
65996;SDS011;52765;52.258;21.052;2024-01-30T05:30:48;39.50;;;15.70;;
65996;SDS011;52765;52.258;21.052;2024-01-30T05:35:13;35.63;;;14.57;;
65996;SDS011;52765;52.258;21.052;2024-01-30T05:39:39;37.25;;;15.50;;
65996;SDS011;52765;52.258;21.052;2024-01-30T05:44:04;30.67;;;13.18;;
65996;SDS011;52765;52.258;21.052;2024-01-30T05:48:30;33.55;;;15.27;;
65996;SDS011;52765;52.258;21.052;2024-01-30T05:52:56;32.50;;;15.00;;
65996;SDS011;52765;52.258;21.052;2024-01-30T05:57:21;34.22;;;14.10;;
65996;SDS011;52765;52.258;21.052;2024-01-30T06:01:47;35.10;;;14.82;;
65996;SDS011;52765;52.258;21.052;2024-01-30T06:06:13;40.05;;;15.25;;
65996;SDS011;52765;52.258;21.052;2024-01-30T06:10:38;37.60;;;14.60;;
65996;SDS011;52765;52.258;21.052;2024-01-30T06:15:07;38.08;;;15.15;;
65996;SDS011;52765;52.258;21.052;2024-01-30T06:19:33;33.65;;;14.13;;
65996;SDS011;52765;52.258;21.052;2024-01-30T06:23:58;38.10;;;14.50;;
65996;SDS011;52765;52.258;21.052;2024-01-30T06:28:24;39.88;;;15.10;;
65996;SDS011;52765;52.258;21.052;2024-01-30T06:32:49;36.03;;;15.45;;
65996;SDS011;52765;52.258;21.052;2024-01-30T06:37:15;40.33;;;15.73;;
65996;SDS011;52765;52.258;21.052;2024-01-30T06:41:41;37.67;;;15.30;;
65996;SDS011;52765;52.258;21.052;2024-01-30T06:46:06;39.40;;;15.43;;
65996;SDS011;52765;52.258;21.052;2024-01-30T06:50:32;34.70;;;13.75;;
65996;SDS011;52765;52.258;21.052;2024-01-30T06:54:57;37.70;;;15.30;;
65996;SDS011;52765;52.258;21.052;2024-01-30T06:59:23;36.15;;;15.00;;
65996;SDS011;52765;52.258;21.052;2024-01-30T07:03:49;39.78;;;14.95;;
65996;SDS011;52765;52.258;21.052;2024-01-30T07:08:15;37.15;;;16.55;;
65996;SDS011;52765;52.258;21.052;2024-01-30T07:12:42;36.63;;;15.77;;
65996;SDS011;52765;52.258;21.052;2024-01-30T07:17:07;42.13;;;15.15;;
65996;SDS011;52765;52.258;21.052;2024-01-30T07:21:33;35.08;;;14.43;;
65996;SDS011;52765;52.258;21.052;2024-01-30T07:25:58;38.40;;;15.55;;
65996;SDS011;52765;52.258;21.052;2024-01-30T07:30:24;37.38;;;13.30;;
65996;SDS011;52765;52.258;21.052;2024-01-30T07:34:49;34.38;;;14.60;;
65996;SDS011;52765;52.258;21.052;2024-01-30T07:39:15;35.55;;;15.68;;
65996;SDS011;52765;52.258;21.052;2024-01-30T07:43:40;36.83;;;14.27;;
65996;SDS011;52765;52.258;21.052;2024-01-30T07:48:06;33.65;;;14.68;;
65996;SDS011;52765;52.258;21.052;2024-01-30T07:52:32;37.30;;;15.38;;
65996;SDS011;52765;52.258;21.052;2024-01-30T07:56:57;39.97;;;16.58;;
65996;SDS011;52765;52.258;21.052;2024-01-30T08:01:22;38.65;;;16.17;;
65996;SDS011;52765;52.258;21.052;2024-01-30T08:05:48;42.20;;;16.38;;
65996;SDS011;52765;52.258;21.052;2024-01-30T08:10:14;39.92;;;15.60;;
65996;SDS011;52765;52.258;21.052;2024-01-30T08:14:40;40.47;;;15.13;;
65996;SDS011;52765;52.258;21.052;2024-01-30T08:19:06;35.70;;;15.15;;
65996;SDS011;52765;52.258;21.052;2024-01-30T08:23:32;37.78;;;14.85;;
65996;SDS011;52765;52.258;21.052;2024-01-30T08:27:57;38.13;;;15.05;;
65996;SDS011;52765;52.258;21.052;2024-01-30T08:32:23;31.10;;;12.93;;
65996;SDS011;52765;52.258;21.052;2024-01-30T08:36:49;32.17;;;15.30;;
65996;SDS011;52765;52.258;21.052;2024-01-30T08:41:14;40.80;;;14.63;;
65996;SDS011;52765;52.258;21.052;2024-01-30T08:45:40;34.88;;;13.57;;
65996;SDS011;52765;52.258;21.052;2024-01-30T08:50:06;33.90;;;13.93;;
65996;SDS011;52765;52.258;21.052;2024-01-30T08:54:32;33.05;;;12.55;;
65996;SDS011;52765;52.258;21.052;2024-01-30T08:59:00;34.63;;;13.77;;
65996;SDS011;52765;52.258;21.052;2024-01-30T09:03:25;30.88;;;12.73;;
65996;SDS011;52765;52.258;21.052;2024-01-30T09:07:51;34.20;;;13.15;;
65996;SDS011;52765;52.258;21.052;2024-01-30T09:12:16;33.83;;;14.13;;
65996;SDS011;52765;52.258;21.052;2024-01-30T09:16:42;31.77;;;12.93;;
65996;SDS011;52765;52.258;21.052;2024-01-30T09:21:07;33.63;;;14.40;;
65996;SDS011;52765;52.258;21.052;2024-01-30T09:25:33;31.67;;;12.50;;
65996;SDS011;52765;52.258;21.052;2024-01-30T09:29:59;33.20;;;13.38;;
65996;SDS011;52765;52.258;21.052;2024-01-30T09:34:25;29.15;;;13.27;;
65996;SDS011;52765;52.258;21.052;2024-01-30T09:38:50;25.70;;;12.35;;
65996;SDS011;52765;52.258;21.052;2024-01-30T09:43:16;38.30;;;12.65;;
65996;SDS011;52765;52.258;21.052;2024-01-30T09:47:46;36.08;;;11.70;;
65996;SDS011;52765;52.258;21.052;2024-01-30T09:52:11;30.05;;;12.02;;
65996;SDS011;52765;52.258;21.052;2024-01-30T09:56:37;31.92;;;11.48;;
65996;SDS011;52765;52.258;21.052;2024-01-30T10:01:03;37.15;;;13.23;;
65996;SDS011;52765;52.258;21.052;2024-01-30T10:05:29;30.55;;;11.52;;
65996;SDS011;52765;52.258;21.052;2024-01-30T10:09:58;31.77;;;12.25;;
65996;SDS011;52765;52.258;21.052;2024-01-30T10:14:24;26.13;;;10.32;;
65996;SDS011;52765;52.258;21.052;2024-01-30T10:18:50;30.95;;;12.57;;
65996;SDS011;52765;52.258;21.052;2024-01-30T10:23:16;24.00;;;10.88;;
65996;SDS011;52765;52.258;21.052;2024-01-30T10:27:42;27.95;;;10.02;;
65996;SDS011;52765;52.258;21.052;2024-01-30T10:32:08;26.02;;;11.15;;
65996;SDS011;52765;52.258;21.052;2024-01-30T10:36:36;29.90;;;10.13;;
65996;SDS011;52765;52.258;21.052;2024-01-30T10:41:06;28.67;;;10.75;;
65996;SDS011;52765;52.258;21.052;2024-01-30T10:45:33;36.97;;;10.68;;
65996;SDS011;52765;52.258;21.052;2024-01-30T10:50:01;24.27;;;9.85;;
65996;SDS011;52765;52.258;21.052;2024-01-30T10:54:28;32.85;;;10.73;;
65996;SDS011;52765;52.258;21.052;2024-01-30T10:58:55;31.50;;;11.80;;
65996;SDS011;52765;52.258;21.052;2024-01-30T11:03:20;30.02;;;11.18;;
65996;SDS011;52765;52.258;21.052;2024-01-30T11:07:46;21.63;;;9.40;;
65996;SDS011;52765;52.258;21.052;2024-01-30T11:12:12;28.73;;;11.52;;
65996;SDS011;52765;52.258;21.052;2024-01-30T11:16:37;29.08;;;11.25;;
65996;SDS011;52765;52.258;21.052;2024-01-30T11:21:05;40.20;;;11.73;;
65996;SDS011;52765;52.258;21.052;2024-01-30T11:25:30;28.20;;;11.15;;
65996;SDS011;52765;52.258;21.052;2024-01-30T11:30:03;26.60;;;10.80;;
65996;SDS011;52765;52.258;21.052;2024-01-30T11:34:28;24.27;;;10.30;;
65996;SDS011;52765;52.258;21.052;2024-01-30T11:38:54;32.67;;;10.65;;
65996;SDS011;52765;52.258;21.052;2024-01-30T11:43:20;28.60;;;9.82;;
65996;SDS011;52765;52.258;21.052;2024-01-30T11:47:45;26.60;;;10.88;;
65996;SDS011;52765;52.258;21.052;2024-01-30T11:52:11;25.08;;;10.15;;
65996;SDS011;52765;52.258;21.052;2024-01-30T11:56:39;30.42;;;11.70;;
65996;SDS011;52765;52.258;21.052;2024-01-30T12:01:05;24.88;;;10.65;;
65996;SDS011;52765;52.258;21.052;2024-01-30T12:05:30;21.90;;;10.48;;
65996;SDS011;52765;52.258;21.052;2024-01-30T12:09:56;26.70;;;10.80;;
65996;SDS011;52765;52.258;21.052;2024-01-30T12:14:22;28.17;;;10.52;;
65996;SDS011;52765;52.258;21.052;2024-01-30T12:18:58;24.83;;;10.18;;
65996;SDS011;52765;52.258;21.052;2024-01-30T12:23:26;25.90;;;10.77;;
65996;SDS011;52765;52.258;21.052;2024-01-30T12:27:52;25.33;;;10.18;;
65996;SDS011;52765;52.258;21.052;2024-01-30T12:32:19;28.52;;;10.63;;
65996;SDS011;52765;52.258;21.052;2024-01-30T12:36:44;34.30;;;11.35;;
65996;SDS011;52765;52.258;21.052;2024-01-30T12:41:10;27.23;;;10.93;;
65996;SDS011;52765;52.258;21.052;2024-01-30T12:45:36;23.50;;;9.45;;
65996;SDS011;52765;52.258;21.052;2024-01-30T12:50:02;27.85;;;10.00;;
65996;SDS011;52765;52.258;21.052;2024-01-30T12:54:28;30.45;;;11.48;;
65996;SDS011;52765;52.258;21.052;2024-01-30T12:58:53;25.27;;;10.25;;
65996;SDS011;52765;52.258;21.052;2024-01-30T13:03:22;38.15;;;10.95;;
65996;SDS011;52765;52.258;21.052;2024-01-30T13:07:47;27.42;;;11.85;;
65996;SDS011;52765;52.258;21.052;2024-01-30T13:12:15;29.05;;;11.10;;
65996;SDS011;52765;52.258;21.052;2024-01-30T13:16:41;30.33;;;10.43;;
65996;SDS011;52765;52.258;21.052;2024-01-30T13:21:07;20.00;;;9.70;;
65996;SDS011;52765;52.258;21.052;2024-01-30T13:25:32;23.67;;;10.68;;
65996;SDS011;52765;52.258;21.052;2024-01-30T13:29:58;26.63;;;11.60;;
65996;SDS011;52765;52.258;21.052;2024-01-30T13:34:23;25.20;;;10.98;;
65996;SDS011;52765;52.258;21.052;2024-01-30T13:38:49;26.98;;;10.98;;
65996;SDS011;52765;52.258;21.052;2024-01-30T13:43:15;24.27;;;10.15;;
65996;SDS011;52765;52.258;21.052;2024-01-30T13:47:41;38.10;;;11.70;;
65996;SDS011;52765;52.258;21.052;2024-01-30T13:52:10;24.83;;;9.93;;
65996;SDS011;52765;52.258;21.052;2024-01-30T13:56:36;21.27;;;10.05;;
65996;SDS011;52765;52.258;21.052;2024-01-30T14:01:01;21.13;;;10.05;;
65996;SDS011;52765;52.258;21.052;2024-01-30T14:05:30;41.13;;;11.60;;
65996;SDS011;52765;52.258;21.052;2024-01-30T14:09:56;34.33;;;11.90;;
65996;SDS011;52765;52.258;21.052;2024-01-30T14:14:24;24.83;;;10.30;;
65996;SDS011;52765;52.258;21.052;2024-01-30T14:18:50;25.52;;;10.45;;
65996;SDS011;52765;52.258;21.052;2024-01-30T14:23:17;27.08;;;10.95;;
65996;SDS011;52765;52.258;21.052;2024-01-30T14:27:42;32.25;;;10.52;;
65996;SDS011;52765;52.258;21.052;2024-01-30T14:32:08;25.48;;;10.52;;
65996;SDS011;52765;52.258;21.052;2024-01-30T14:36:35;36.28;;;11.48;;
65996;SDS011;52765;52.258;21.052;2024-01-30T14:41:00;27.77;;;10.20;;
65996;SDS011;52765;52.258;21.052;2024-01-30T14:45:25;26.80;;;10.73;;
65996;SDS011;52765;52.258;21.052;2024-01-30T14:49:51;29.00;;;10.65;;
65996;SDS011;52765;52.258;21.052;2024-01-30T14:54:17;32.38;;;10.30;;
65996;SDS011;52765;52.258;21.052;2024-01-30T14:58:43;32.78;;;11.05;;
65996;SDS011;52765;52.258;21.052;2024-01-30T15:03:09;27.27;;;10.85;;
65996;SDS011;52765;52.258;21.052;2024-01-30T15:07:34;34.10;;;11.30;;
65996;SDS011;52765;52.258;21.052;2024-01-30T15:12:00;26.13;;;10.57;;
65996;SDS011;52765;52.258;21.052;2024-01-30T15:16:25;37.03;;;11.85;;
65996;SDS011;52765;52.258;21.052;2024-01-30T15:20:51;29.67;;;11.18;;
65996;SDS011;52765;52.258;21.052;2024-01-30T15:25:16;32.47;;;11.98;;
65996;SDS011;52765;52.258;21.052;2024-01-30T15:29:42;27.60;;;10.73;;
65996;SDS011;52765;52.258;21.052;2024-01-30T15:34:07;32.08;;;10.90;;
65996;SDS011;52765;52.258;21.052;2024-01-30T15:38:33;28.92;;;11.13;;
65996;SDS011;52765;52.258;21.052;2024-01-30T15:42:58;26.92;;;10.40;;
65996;SDS011;52765;52.258;21.052;2024-01-30T15:47:24;24.17;;;10.85;;
65996;SDS011;52765;52.258;21.052;2024-01-30T15:51:50;27.98;;;10.85;;
65996;SDS011;52765;52.258;21.052;2024-01-30T15:56:18;29.35;;;10.60;;
65996;SDS011;52765;52.258;21.052;2024-01-30T16:00:44;23.23;;;9.55;;
65996;SDS011;52765;52.258;21.052;2024-01-30T16:05:09;28.88;;;10.95;;
65996;SDS011;52765;52.258;21.052;2024-01-30T16:09:35;22.48;;;10.38;;
65996;SDS011;52765;52.258;21.052;2024-01-30T16:14:00;25.25;;;10.27;;
65996;SDS011;52765;52.258;21.052;2024-01-30T16:18:26;24.45;;;10.60;;
65996;SDS011;52765;52.258;21.052;2024-01-30T16:22:51;30.70;;;12.55;;
65996;SDS011;52765;52.258;21.052;2024-01-30T16:27:18;27.73;;;10.25;;
65996;SDS011;52765;52.258;21.052;2024-01-30T16:31:44;27.17;;;10.63;;
65996;SDS011;52765;52.258;21.052;2024-01-30T16:36:09;27.38;;;9.82;;
65996;SDS011;52765;52.258;21.052;2024-01-30T16:40:35;24.88;;;10.98;;
65996;SDS011;52765;52.258;21.052;2024-01-30T16:45:00;27.77;;;11.57;;
65996;SDS011;52765;52.258;21.052;2024-01-30T16:49:26;27.88;;;10.02;;
65996;SDS011;52765;52.258;21.052;2024-01-30T16:53:51;32.70;;;11.25;;
65996;SDS011;52765;52.258;21.052;2024-01-30T16:58:19;28.23;;;10.65;;
65996;SDS011;52765;52.258;21.052;2024-01-30T17:02:57;26.85;;;10.35;;
65996;SDS011;52765;52.258;21.052;2024-01-30T17:07:23;26.25;;;9.98;;
65996;SDS011;52765;52.258;21.052;2024-01-30T17:11:48;22.92;;;10.25;;
65996;SDS011;52765;52.258;21.052;2024-01-30T17:16:14;25.08;;;10.50;;
65996;SDS011;52765;52.258;21.052;2024-01-30T17:20:40;32.58;;;11.50;;
65996;SDS011;52765;52.258;21.052;2024-01-30T17:25:08;25.02;;;11.02;;
65996;SDS011;52765;52.258;21.052;2024-01-30T17:29:33;24.13;;;9.63;;
65996;SDS011;52765;52.258;21.052;2024-01-30T17:33:59;24.65;;;10.93;;
65996;SDS011;52765;52.258;21.052;2024-01-30T17:38:24;24.70;;;10.77;;
65996;SDS011;52765;52.258;21.052;2024-01-30T17:42:50;27.35;;;11.88;;
65996;SDS011;52765;52.258;21.052;2024-01-30T17:47:16;35.83;;;11.45;;
65996;SDS011;52765;52.258;21.052;2024-01-30T17:51:41;32.90;;;12.88;;
65996;SDS011;52765;52.258;21.052;2024-01-30T17:56:07;31.42;;;12.73;;
65996;SDS011;52765;52.258;21.052;2024-01-30T18:05:01;29.00;;;12.43;;
65996;SDS011;52765;52.258;21.052;2024-01-30T18:09:29;32.40;;;11.67;;
65996;SDS011;52765;52.258;21.052;2024-01-30T18:13:55;26.20;;;11.52;;
65996;SDS011;52765;52.258;21.052;2024-01-30T18:18:24;35.60;;;13.13;;
65996;SDS011;52765;52.258;21.052;2024-01-30T18:22:51;31.80;;;12.45;;
65996;SDS011;52765;52.258;21.052;2024-01-30T18:27:16;35.63;;;13.52;;
65996;SDS011;52765;52.258;21.052;2024-01-30T18:31:42;40.20;;;13.75;;
65996;SDS011;52765;52.258;21.052;2024-01-30T18:36:09;37.63;;;14.63;;
65996;SDS011;52765;52.258;21.052;2024-01-30T18:40:35;39.60;;;14.82;;
65996;SDS011;52765;52.258;21.052;2024-01-30T18:45:01;43.60;;;15.25;;
65996;SDS011;52765;52.258;21.052;2024-01-30T18:49:27;76.05;;;30.63;;
65996;SDS011;52765;52.258;21.052;2024-01-30T18:53:53;35.22;;;15.25;;
65996;SDS011;52765;52.258;21.052;2024-01-30T18:58:21;40.22;;;15.05;;
65996;SDS011;52765;52.258;21.052;2024-01-30T19:02:46;37.47;;;14.40;;
65996;SDS011;52765;52.258;21.052;2024-01-30T19:07:13;37.88;;;15.48;;
65996;SDS011;52765;52.258;21.052;2024-01-30T19:11:38;37.97;;;15.40;;
65996;SDS011;52765;52.258;21.052;2024-01-30T19:16:05;39.25;;;15.95;;
65996;SDS011;52765;52.258;21.052;2024-01-30T19:20:31;40.58;;;16.10;;
65996;SDS011;52765;52.258;21.052;2024-01-30T19:24:56;39.72;;;16.73;;
65996;SDS011;52765;52.258;21.052;2024-01-30T19:29:21;44.87;;;20.27;;
65996;SDS011;52765;52.258;21.052;2024-01-30T19:33:47;37.47;;;16.67;;
65996;SDS011;52765;52.258;21.052;2024-01-30T19:38:12;44.80;;;16.77;;
65996;SDS011;52765;52.258;21.052;2024-01-30T19:42:39;39.83;;;16.08;;
65996;SDS011;52765;52.258;21.052;2024-01-30T19:47:04;44.42;;;16.80;;
65996;SDS011;52765;52.258;21.052;2024-01-30T19:51:34;39.33;;;14.98;;
65996;SDS011;52765;52.258;21.052;2024-01-30T19:55:59;44.63;;;15.43;;
65996;SDS011;52765;52.258;21.052;2024-01-30T20:00:25;36.30;;;14.95;;
65996;SDS011;52765;52.258;21.052;2024-01-30T20:04:51;42.63;;;15.65;;
65996;SDS011;52765;52.258;21.052;2024-01-30T20:09:17;37.45;;;15.48;;
65996;SDS011;52765;52.258;21.052;2024-01-30T20:13:43;32.85;;;15.60;;
65996;SDS011;52765;52.258;21.052;2024-01-30T20:18:09;45.72;;;16.73;;
65996;SDS011;52765;52.258;21.052;2024-01-30T20:22:34;43.25;;;17.10;;
65996;SDS011;52765;52.258;21.052;2024-01-30T20:27:00;45.28;;;17.60;;
65996;SDS011;52765;52.258;21.052;2024-01-30T20:31:25;40.92;;;15.93;;
65996;SDS011;52765;52.258;21.052;2024-01-30T20:35:53;39.03;;;17.20;;
65996;SDS011;52765;52.258;21.052;2024-01-30T20:40:18;43.17;;;17.65;;
65996;SDS011;52765;52.258;21.052;2024-01-30T20:44:44;35.90;;;16.27;;
65996;SDS011;52765;52.258;21.052;2024-01-30T20:49:09;37.92;;;16.50;;
65996;SDS011;52765;52.258;21.052;2024-01-30T20:53:35;36.78;;;16.60;;
65996;SDS011;52765;52.258;21.052;2024-01-30T20:58:02;42.05;;;17.55;;
65996;SDS011;52765;52.258;21.052;2024-01-30T21:02:27;39.72;;;17.65;;
65996;SDS011;52765;52.258;21.052;2024-01-30T21:06:53;39.70;;;16.85;;
65996;SDS011;52765;52.258;21.052;2024-01-30T21:11:19;39.92;;;17.05;;
65996;SDS011;52765;52.258;21.052;2024-01-30T21:15:45;41.85;;;16.85;;
65996;SDS011;52765;52.258;21.052;2024-01-30T21:20:11;37.30;;;16.90;;
65996;SDS011;52765;52.258;21.052;2024-01-30T21:24:38;42.22;;;17.10;;
65996;SDS011;52765;52.258;21.052;2024-01-30T21:29:06;41.37;;;15.93;;
65996;SDS011;52765;52.258;21.052;2024-01-30T21:33:31;41.20;;;17.08;;
65996;SDS011;52765;52.258;21.052;2024-01-30T21:37:57;40.55;;;16.83;;
65996;SDS011;52765;52.258;21.052;2024-01-30T21:42:22;33.75;;;16.60;;
65996;SDS011;52765;52.258;21.052;2024-01-30T21:46:48;41.15;;;16.83;;
65996;SDS011;52765;52.258;21.052;2024-01-30T21:51:13;36.13;;;14.52;;
65996;SDS011;52765;52.258;21.052;2024-01-30T21:55:39;39.33;;;16.92;;
65996;SDS011;52765;52.258;21.052;2024-01-30T22:00:06;37.35;;;15.98;;
65996;SDS011;52765;52.258;21.052;2024-01-30T22:04:34;36.42;;;15.68;;
65996;SDS011;52765;52.258;21.052;2024-01-30T22:09:00;38.53;;;15.15;;
65996;SDS011;52765;52.258;21.052;2024-01-30T22:13:28;35.95;;;15.88;;
65996;SDS011;52765;52.258;21.052;2024-01-30T22:17:53;32.08;;;13.75;;
65996;SDS011;52765;52.258;21.052;2024-01-30T22:22:19;36.70;;;14.57;;
65996;SDS011;52765;52.258;21.052;2024-01-30T22:26:45;32.38;;;13.18;;
65996;SDS011;52765;52.258;21.052;2024-01-30T22:31:11;31.80;;;13.73;;
65996;SDS011;52765;52.258;21.052;2024-01-30T22:35:36;35.38;;;14.90;;
65996;SDS011;52765;52.258;21.052;2024-01-30T22:40:02;32.70;;;12.18;;
65996;SDS011;52765;52.258;21.052;2024-01-30T22:44:28;39.00;;;13.25;;
65996;SDS011;52765;52.258;21.052;2024-01-30T22:48:54;28.52;;;12.25;;
65996;SDS011;52765;52.258;21.052;2024-01-30T22:53:19;32.15;;;13.40;;
65996;SDS011;52765;52.258;21.052;2024-01-30T22:57:45;26.17;;;12.48;;
65996;SDS011;52765;52.258;21.052;2024-01-30T23:07:32;33.00;;;13.10;;
65996;SDS011;52765;52.258;21.052;2024-01-30T23:12:04;26.60;;;12.70;;
65996;SDS011;52765;52.258;21.052;2024-01-30T23:16:30;25.85;;;11.55;;
65996;SDS011;52765;52.258;21.052;2024-01-30T23:20:57;30.08;;;11.77;;
65996;SDS011;52765;52.258;21.052;2024-01-30T23:25:22;29.73;;;11.45;;
65996;SDS011;52765;52.258;21.052;2024-01-30T23:29:48;30.17;;;11.98;;
65996;SDS011;52765;52.258;21.052;2024-01-30T23:34:13;26.33;;;12.18;;
65996;SDS011;52765;52.258;21.052;2024-01-30T23:38:42;30.52;;;11.68;;
65996;SDS011;52765;52.258;21.052;2024-01-30T23:43:07;33.17;;;12.65;;
65996;SDS011;52765;52.258;21.052;2024-01-30T23:47:33;31.63;;;10.90;;
65996;SDS011;52765;52.258;21.052;2024-01-30T23:51:59;23.17;;;10.45;;
65996;SDS011;52765;52.258;21.052;2024-01-30T23:56:24;24.70;;;10.10;;
